sensor_id;sensor_type;location;lat;lon;timestamp;temperature;humidity
37002;DHT22;22913;51.910;8.374;2022-09-09T00:00:12;17.00;99.90
37002;DHT22;22913;51.910;8.374;2022-09-09T00:03:03;17.00;99.90
37002;DHT22;22913;51.910;8.374;2022-09-09T00:05:58;17.00;99.90
37002;DHT22;22913;51.910;8.374;2022-09-09T00:08:53;16.90;99.90
37002;DHT22;22913;51.910;8.374;2022-09-09T00:11:45;16.90;99.90
37002;DHT22;22913;51.910;8.374;2022-09-09T00:14:37;16.90;99.90
37002;DHT22;22913;51.910;8.374;2022-09-09T00:17:33;16.90;99.90
37002;DHT22;22913;51.910;8.374;2022-09-09T00:20:25;16.90;99.90
37002;DHT22;22913;51.910;8.374;2022-09-09T00:23:19;16.90;99.90
37002;DHT22;22913;51.910;8.374;2022-09-09T00:26:14;16.90;99.90
37002;DHT22;22913;51.910;8.374;2022-09-09T00:29:05;16.80;99.90
37002;DHT22;22913;51.910;8.374;2022-09-09T00:31:57;16.80;99.90
37002;DHT22;22913;51.910;8.374;2022-09-09T00:34:52;16.80;99.90
37002;DHT22;22913;51.910;8.374;2022-09-09T00:37:38;16.70;99.90
37002;DHT22;22913;51.910;8.374;2022-09-09T00:40:31;16.80;99.90
37002;DHT22;22913;51.910;8.374;2022-09-09T00:43:26;16.90;99.90
37002;DHT22;22913;51.910;8.374;2022-09-09T00:49:37;16.80;99.90
37002;DHT22;22913;51.910;8.374;2022-09-09T00:52:32;16.90;99.90
37002;DHT22;22913;51.910;8.374;2022-09-09T00:55:27;16.90;99.90
37002;DHT22;22913;51.910;8.374;2022-09-09T00:58:13;17.00;99.90
37002;DHT22;22913;51.910;8.374;2022-09-09T01:01:03;17.00;99.90
37002;DHT22;22913;51.910;8.374;2022-09-09T01:03:53;17.00;99.90
37002;DHT22;22913;51.910;8.374;2022-09-09T01:06:39;17.00;99.90
37002;DHT22;22913;51.910;8.374;2022-09-09T01:09:33;17.00;99.90
37002;DHT22;22913;51.910;8.374;2022-09-09T01:12:34;16.90;99.90
37002;DHT22;22913;51.910;8.374;2022-09-09T01:15:24;16.90;99.90
37002;DHT22;22913;51.910;8.374;2022-09-09T01:18:13;16.90;99.90
37002;DHT22;22913;51.910;8.374;2022-09-09T01:21:07;16.90;99.90
37002;DHT22;22913;51.910;8.374;2022-09-09T01:24:20;16.90;99.90
37002;DHT22;22913;51.910;8.374;2022-09-09T01:27:09;16.80;99.90
37002;DHT22;22913;51.910;8.374;2022-09-09T01:29:56;16.90;99.90
37002;DHT22;22913;51.910;8.374;2022-09-09T01:32:45;16.90;99.90
37002;DHT22;22913;51.910;8.374;2022-09-09T01:35:43;16.80;99.90
37002;DHT22;22913;51.910;8.374;2022-09-09T01:38:31;16.90;99.90
37002;DHT22;22913;51.910;8.374;2022-09-09T01:41:18;16.90;99.90
37002;DHT22;22913;51.910;8.374;2022-09-09T01:44:06;16.80;99.90
37002;DHT22;22913;51.910;8.374;2022-09-09T01:46:52;16.80;99.90
37002;DHT22;22913;51.910;8.374;2022-09-09T01:49:38;16.80;99.90
37002;DHT22;22913;51.910;8.374;2022-09-09T01:52:24;16.80;99.90
37002;DHT22;22913;51.910;8.374;2022-09-09T01:55:10;16.80;99.90
37002;DHT22;22913;51.910;8.374;2022-09-09T01:58:06;16.70;99.90
37002;DHT22;22913;51.910;8.374;2022-09-09T02:00:59;16.70;99.90
37002;DHT22;22913;51.910;8.374;2022-09-09T02:03:51;16.60;99.90
37002;DHT22;22913;51.910;8.374;2022-09-09T02:06:38;16.70;99.90
37002;DHT22;22913;51.910;8.374;2022-09-09T02:09:26;16.70;99.90
37002;DHT22;22913;51.910;8.374;2022-09-09T02:12:14;16.70;99.90
37002;DHT22;22913;51.910;8.374;2022-09-09T02:15:06;16.70;99.90
37002;DHT22;22913;51.910;8.374;2022-09-09T02:17:57;16.70;99.90
37002;DHT22;22913;51.910;8.374;2022-09-09T02:20:44;16.70;99.90
37002;DHT22;22913;51.910;8.374;2022-09-09T02:23:31;16.60;99.90
37002;DHT22;22913;51.910;8.374;2022-09-09T02:26:17;16.80;99.90
37002;DHT22;22913;51.910;8.374;2022-09-09T02:29:08;16.70;99.90
37002;DHT22;22913;51.910;8.374;2022-09-09T02:31:55;16.80;99.90
37002;DHT22;22913;51.910;8.374;2022-09-09T02:34:46;16.80;99.90
37002;DHT22;22913;51.910;8.374;2022-09-09T02:37:36;16.80;99.90
37002;DHT22;22913;51.910;8.374;2022-09-09T02:40:22;16.80;99.90
37002;DHT22;22913;51.910;8.374;2022-09-09T02:43:08;16.80;99.90
37002;DHT22;22913;51.910;8.374;2022-09-09T02:46:12;16.70;99.90
37002;DHT22;22913;51.910;8.374;2022-09-09T02:49:08;16.70;99.90
37002;DHT22;22913;51.910;8.374;2022-09-09T02:52:02;16.70;99.90
37002;DHT22;22913;51.910;8.374;2022-09-09T02:54:54;16.70;99.90
37002;DHT22;22913;51.910;8.374;2022-09-09T02:57:44;16.70;99.90
37002;DHT22;22913;51.910;8.374;2022-09-09T03:00:32;16.70;99.90
37002;DHT22;22913;51.910;8.374;2022-09-09T03:03:18;16.70;99.90
37002;DHT22;22913;51.910;8.374;2022-09-09T03:06:04;16.70;99.90
37002;DHT22;22913;51.910;8.374;2022-09-09T03:08:52;16.70;99.90
37002;DHT22;22913;51.910;8.374;2022-09-09T03:11:37;16.70;99.90
37002;DHT22;22913;51.910;8.374;2022-09-09T03:14:23;16.60;99.90
37002;DHT22;22913;51.910;8.374;2022-09-09T03:17:09;16.50;99.90
37002;DHT22;22913;51.910;8.374;2022-09-09T03:19:55;16.60;99.90
37002;DHT22;22913;51.910;8.374;2022-09-09T03:22:42;16.60;99.90
37002;DHT22;22913;51.910;8.374;2022-09-09T03:25:30;16.50;99.90
37002;DHT22;22913;51.910;8.374;2022-09-09T03:28:16;16.60;99.90
37002;DHT22;22913;51.910;8.374;2022-09-09T03:31:03;16.60;99.90
37002;DHT22;22913;51.910;8.374;2022-09-09T03:33:49;16.60;99.90
37002;DHT22;22913;51.910;8.374;2022-09-09T03:36:35;16.60;99.90
37002;DHT22;22913;51.910;8.374;2022-09-09T03:39:21;16.60;99.90
37002;DHT22;22913;51.910;8.374;2022-09-09T03:42:08;16.50;99.90
37002;DHT22;22913;51.910;8.374;2022-09-09T03:44:54;16.50;99.90
37002;DHT22;22913;51.910;8.374;2022-09-09T03:47:41;16.50;99.90
37002;DHT22;22913;51.910;8.374;2022-09-09T03:50:27;16.60;99.90
37002;DHT22;22913;51.910;8.374;2022-09-09T03:53:14;16.50;99.90
37002;DHT22;22913;51.910;8.374;2022-09-09T03:56:00;16.50;99.90
37002;DHT22;22913;51.910;8.374;2022-09-09T03:58:48;16.50;99.90
37002;DHT22;22913;51.910;8.374;2022-09-09T04:01:33;16.50;99.90
37002;DHT22;22913;51.910;8.374;2022-09-09T04:04:19;16.50;99.90
37002;DHT22;22913;51.910;8.374;2022-09-09T04:07:05;16.50;99.90
37002;DHT22;22913;51.910;8.374;2022-09-09T04:09:51;16.50;99.90
37002;DHT22;22913;51.910;8.374;2022-09-09T04:12:37;16.50;99.90
37002;DHT22;22913;51.910;8.374;2022-09-09T04:15:24;16.40;99.90
37002;DHT22;22913;51.910;8.374;2022-09-09T04:18:09;16.30;99.90
37002;DHT22;22913;51.910;8.374;2022-09-09T04:20:56;16.30;99.90
37002;DHT22;22913;51.910;8.374;2022-09-09T04:23:41;16.30;99.90
37002;DHT22;22913;51.910;8.374;2022-09-09T04:26:27;16.30;99.90
37002;DHT22;22913;51.910;8.374;2022-09-09T04:29:13;16.30;99.90
37002;DHT22;22913;51.910;8.374;2022-09-09T04:32:00;16.30;99.90
37002;DHT22;22913;51.910;8.374;2022-09-09T04:34:46;16.30;99.90
37002;DHT22;22913;51.910;8.374;2022-09-09T04:37:32;16.30;99.90
37002;DHT22;22913;51.910;8.374;2022-09-09T04:40:17;16.30;99.90
37002;DHT22;22913;51.910;8.374;2022-09-09T04:43:03;16.30;99.90
37002;DHT22;22913;51.910;8.374;2022-09-09T04:45:50;16.20;99.90
37002;DHT22;22913;51.910;8.374;2022-09-09T04:48:38;16.30;99.90
37002;DHT22;22913;51.910;8.374;2022-09-09T04:51:24;16.30;99.90
37002;DHT22;22913;51.910;8.374;2022-09-09T04:54:10;16.30;99.90
37002;DHT22;22913;51.910;8.374;2022-09-09T04:56:56;16.30;99.90
37002;DHT22;22913;51.910;8.374;2022-09-09T04:59:42;16.30;99.90
37002;DHT22;22913;51.910;8.374;2022-09-09T05:02:28;16.40;99.90
37002;DHT22;22913;51.910;8.374;2022-09-09T05:05:16;16.30;99.90
37002;DHT22;22913;51.910;8.374;2022-09-09T05:08:03;16.30;99.90
37002;DHT22;22913;51.910;8.374;2022-09-09T05:10:49;16.30;99.90
37002;DHT22;22913;51.910;8.374;2022-09-09T05:13:34;16.30;99.90
37002;DHT22;22913;51.910;8.374;2022-09-09T05:16:20;16.30;99.90
37002;DHT22;22913;51.910;8.374;2022-09-09T05:19:06;16.30;99.90
37002;DHT22;22913;51.910;8.374;2022-09-09T05:21:54;16.30;99.90
37002;DHT22;22913;51.910;8.374;2022-09-09T05:24:39;16.20;99.90
37002;DHT22;22913;51.910;8.374;2022-09-09T05:27:25;16.30;99.90
37002;DHT22;22913;51.910;8.374;2022-09-09T05:30:11;16.30;99.90
37002;DHT22;22913;51.910;8.374;2022-09-09T05:32:57;16.30;99.90
37002;DHT22;22913;51.910;8.374;2022-09-09T05:35:42;16.30;99.90
37002;DHT22;22913;51.910;8.374;2022-09-09T05:38:30;16.30;99.90
37002;DHT22;22913;51.910;8.374;2022-09-09T05:41:19;16.30;99.90
37002;DHT22;22913;51.910;8.374;2022-09-09T05:44:07;16.30;99.90
37002;DHT22;22913;51.910;8.374;2022-09-09T05:46:53;16.30;99.90
37002;DHT22;22913;51.910;8.374;2022-09-09T05:49:38;16.40;99.90
37002;DHT22;22913;51.910;8.374;2022-09-09T05:52:24;16.40;99.90
37002;DHT22;22913;51.910;8.374;2022-09-09T05:55:13;16.40;99.90
37002;DHT22;22913;51.910;8.374;2022-09-09T05:57:59;16.40;99.90
37002;DHT22;22913;51.910;8.374;2022-09-09T06:00:45;16.40;99.90
37002;DHT22;22913;51.910;8.374;2022-09-09T06:03:31;16.40;99.90
37002;DHT22;22913;51.910;8.374;2022-09-09T06:06:18;16.50;99.90
37002;DHT22;22913;51.910;8.374;2022-09-09T06:09:07;16.50;99.90
37002;DHT22;22913;51.910;8.374;2022-09-09T06:11:55;16.60;99.90
37002;DHT22;22913;51.910;8.374;2022-09-09T06:14:42;16.60;99.90
37002;DHT22;22913;51.910;8.374;2022-09-09T06:17:27;16.60;99.90
37002;DHT22;22913;51.910;8.374;2022-09-09T06:20:13;16.70;99.90
37002;DHT22;22913;51.910;8.374;2022-09-09T06:22:59;16.70;99.90
37002;DHT22;22913;51.910;8.374;2022-09-09T06:25:46;16.80;99.90
37002;DHT22;22913;51.910;8.374;2022-09-09T06:28:34;16.80;99.90
37002;DHT22;22913;51.910;8.374;2022-09-09T06:31:22;16.90;99.90
37002;DHT22;22913;51.910;8.374;2022-09-09T06:34:08;16.90;99.90
37002;DHT22;22913;51.910;8.374;2022-09-09T06:36:54;17.00;99.90
37002;DHT22;22913;51.910;8.374;2022-09-09T06:39:41;17.00;99.90
37002;DHT22;22913;51.910;8.374;2022-09-09T06:42:27;17.10;99.90
37002;DHT22;22913;51.910;8.374;2022-09-09T06:45:14;17.10;99.90
37002;DHT22;22913;51.910;8.374;2022-09-09T06:48:00;17.10;99.90
37002;DHT22;22913;51.910;8.374;2022-09-09T06:50:47;17.10;99.90
37002;DHT22;22913;51.910;8.374;2022-09-09T06:53:35;17.20;99.90
37002;DHT22;22913;51.910;8.374;2022-09-09T06:56:23;17.20;99.90
37002;DHT22;22913;51.910;8.374;2022-09-09T06:59:10;17.30;99.90
37002;DHT22;22913;51.910;8.374;2022-09-09T07:01:57;17.30;99.90
37002;DHT22;22913;51.910;8.374;2022-09-09T07:04:43;17.40;99.90
37002;DHT22;22913;51.910;8.374;2022-09-09T07:07:28;17.30;99.90
37002;DHT22;22913;51.910;8.374;2022-09-09T07:10:15;17.40;99.90
37002;DHT22;22913;51.910;8.374;2022-09-09T07:13:00;17.40;99.90
37002;DHT22;22913;51.910;8.374;2022-09-09T07:15:46;17.40;99.90
37002;DHT22;22913;51.910;8.374;2022-09-09T07:18:33;17.50;99.90
37002;DHT22;22913;51.910;8.374;2022-09-09T07:21:19;17.60;99.90
37002;DHT22;22913;51.910;8.374;2022-09-09T07:24:05;17.70;99.90
37002;DHT22;22913;51.910;8.374;2022-09-09T07:26:51;17.70;99.90
37002;DHT22;22913;51.910;8.374;2022-09-09T07:29:37;17.70;99.90
37002;DHT22;22913;51.910;8.374;2022-09-09T07:32:22;17.70;99.90
37002;DHT22;22913;51.910;8.374;2022-09-09T07:35:11;17.80;99.90
37002;DHT22;22913;51.910;8.374;2022-09-09T07:37:56;17.90;99.90
37002;DHT22;22913;51.910;8.374;2022-09-09T07:40:42;17.90;99.90
37002;DHT22;22913;51.910;8.374;2022-09-09T07:43:28;17.90;99.90
37002;DHT22;22913;51.910;8.374;2022-09-09T07:46:16;18.00;99.90
37002;DHT22;22913;51.910;8.374;2022-09-09T07:49:02;18.00;99.90
37002;DHT22;22913;51.910;8.374;2022-09-09T07:51:49;18.10;99.90
37002;DHT22;22913;51.910;8.374;2022-09-09T07:54:35;18.20;99.90
37002;DHT22;22913;51.910;8.374;2022-09-09T07:57:21;18.20;99.90
37002;DHT22;22913;51.910;8.374;2022-09-09T08:00:08;18.30;99.90
37002;DHT22;22913;51.910;8.374;2022-09-09T08:02:54;18.40;99.90
37002;DHT22;22913;51.910;8.374;2022-09-09T08:05:40;18.50;99.90
37002;DHT22;22913;51.910;8.374;2022-09-09T08:08:28;18.50;99.90
37002;DHT22;22913;51.910;8.374;2022-09-09T08:11:15;18.60;99.90
37002;DHT22;22913;51.910;8.374;2022-09-09T08:14:01;18.70;99.90
37002;DHT22;22913;51.910;8.374;2022-09-09T08:16:48;18.80;99.90
37002;DHT22;22913;51.910;8.374;2022-09-09T08:19:34;18.90;99.90
37002;DHT22;22913;51.910;8.374;2022-09-09T08:22:20;19.00;99.90
37002;DHT22;22913;51.910;8.374;2022-09-09T08:25:07;19.20;99.90
37002;DHT22;22913;51.910;8.374;2022-09-09T08:27:54;19.20;99.90
37002;DHT22;22913;51.910;8.374;2022-09-09T08:30:40;19.20;99.90
37002;DHT22;22913;51.910;8.374;2022-09-09T08:33:26;19.20;99.90
37002;DHT22;22913;51.910;8.374;2022-09-09T08:36:14;19.10;99.90
37002;DHT22;22913;51.910;8.374;2022-09-09T08:39:00;19.10;99.90
37002;DHT22;22913;51.910;8.374;2022-09-09T08:42:03;19.10;99.90
37002;DHT22;22913;51.910;8.374;2022-09-09T08:48:15;19.40;99.90
37002;DHT22;22913;51.910;8.374;2022-09-09T08:51:03;19.30;99.90
37002;DHT22;22913;51.910;8.374;2022-09-09T08:53:52;19.20;99.90
37002;DHT22;22913;51.910;8.374;2022-09-09T08:56:39;19.00;99.90
37002;DHT22;22913;51.910;8.374;2022-09-09T08:59:26;19.10;99.90
37002;DHT22;22913;51.910;8.374;2022-09-09T09:02:16;19.00;99.90
37002;DHT22;22913;51.910;8.374;2022-09-09T09:05:13;19.00;99.90
37002;DHT22;22913;51.910;8.374;2022-09-09T09:08:08;19.00;99.90
37002;DHT22;22913;51.910;8.374;2022-09-09T09:10:57;19.00;99.90
37002;DHT22;22913;51.910;8.374;2022-09-09T09:13:48;18.90;99.90
37002;DHT22;22913;51.910;8.374;2022-09-09T09:16:46;18.90;99.90
37002;DHT22;22913;51.910;8.374;2022-09-09T09:19:34;19.00;99.90
37002;DHT22;22913;51.910;8.374;2022-09-09T09:22:22;19.10;99.90
37002;DHT22;22913;51.910;8.374;2022-09-09T09:25:17;19.30;99.90
37002;DHT22;22913;51.910;8.374;2022-09-09T09:28:12;19.60;99.90
37002;DHT22;22913;51.910;8.374;2022-09-09T09:31:04;19.60;99.90
37002;DHT22;22913;51.910;8.374;2022-09-09T09:33:53;19.60;99.90
37002;DHT22;22913;51.910;8.374;2022-09-09T09:36:41;19.70;99.90
37002;DHT22;22913;51.910;8.374;2022-09-09T09:39:30;19.80;99.90
37002;DHT22;22913;51.910;8.374;2022-09-09T09:42:20;19.80;99.90
37002;DHT22;22913;51.910;8.374;2022-09-09T09:45:16;19.80;99.90
37002;DHT22;22913;51.910;8.374;2022-09-09T09:48:05;19.80;99.90
37002;DHT22;22913;51.910;8.374;2022-09-09T09:50:55;19.80;99.90
37002;DHT22;22913;51.910;8.374;2022-09-09T09:53:42;19.80;99.90
37002;DHT22;22913;51.910;8.374;2022-09-09T09:56:28;19.90;99.90
37002;DHT22;22913;51.910;8.374;2022-09-09T09:59:23;19.90;99.90
37002;DHT22;22913;51.910;8.374;2022-09-09T10:02:17;20.00;99.90
37002;DHT22;22913;51.910;8.374;2022-09-09T10:05:06;20.00;99.90
37002;DHT22;22913;51.910;8.374;2022-09-09T10:08:04;20.10;99.90
37002;DHT22;22913;51.910;8.374;2022-09-09T10:11:07;20.20;99.90
37002;DHT22;22913;51.910;8.374;2022-09-09T10:14:02;20.30;99.90
37002;DHT22;22913;51.910;8.374;2022-09-09T10:17:02;20.30;99.90
37002;DHT22;22913;51.910;8.374;2022-09-09T10:19:57;20.50;99.90
37002;DHT22;22913;51.910;8.374;2022-09-09T10:22:50;20.70;99.90
37002;DHT22;22913;51.910;8.374;2022-09-09T10:25:57;20.90;99.90
37002;DHT22;22913;51.910;8.374;2022-09-09T10:29:00;20.90;99.90
37002;DHT22;22913;51.910;8.374;2022-09-09T10:31:57;20.90;99.90
37002;DHT22;22913;51.910;8.374;2022-09-09T10:34:57;21.00;99.90
37002;DHT22;22913;51.910;8.374;2022-09-09T10:38:16;21.00;99.90
37002;DHT22;22913;51.910;8.374;2022-09-09T10:41:19;21.00;99.90
37002;DHT22;22913;51.910;8.374;2022-09-09T10:44:21;21.10;99.90
37002;DHT22;22913;51.910;8.374;2022-09-09T10:47:28;21.30;99.90
37002;DHT22;22913;51.910;8.374;2022-09-09T10:50:36;21.60;99.90
37002;DHT22;22913;51.910;8.374;2022-09-09T10:53:35;21.80;99.90
37002;DHT22;22913;51.910;8.374;2022-09-09T10:56:25;21.90;99.90
37002;DHT22;22913;51.910;8.374;2022-09-09T10:59:17;21.80;99.90
37002;DHT22;22913;51.910;8.374;2022-09-09T11:02:14;21.90;99.90
37002;DHT22;22913;51.910;8.374;2022-09-09T11:05:03;21.90;99.90
37002;DHT22;22913;51.910;8.374;2022-09-09T11:07:54;21.90;99.90
37002;DHT22;22913;51.910;8.374;2022-09-09T11:10:45;21.90;99.90
37002;DHT22;22913;51.910;8.374;2022-09-09T11:13:42;22.20;99.90
37002;DHT22;22913;51.910;8.374;2022-09-09T11:16:34;22.40;99.90
37002;DHT22;22913;51.910;8.374;2022-09-09T11:19:30;22.60;99.90
37002;DHT22;22913;51.910;8.374;2022-09-09T11:22:25;22.50;99.90
37002;DHT22;22913;51.910;8.374;2022-09-09T11:25:16;22.40;99.90
37002;DHT22;22913;51.910;8.374;2022-09-09T11:28:19;22.40;99.90
37002;DHT22;22913;51.910;8.374;2022-09-09T11:31:21;22.50;99.90
37002;DHT22;22913;51.910;8.374;2022-09-09T11:34:22;22.40;99.90
37002;DHT22;22913;51.910;8.374;2022-09-09T11:37:21;22.40;99.90
37002;DHT22;22913;51.910;8.374;2022-09-09T11:40:22;22.40;99.90
37002;DHT22;22913;51.910;8.374;2022-09-09T11:43:11;22.30;99.90
37002;DHT22;22913;51.910;8.374;2022-09-09T11:45:59;22.40;99.90
37002;DHT22;22913;51.910;8.374;2022-09-09T11:48:58;22.60;99.90
37002;DHT22;22913;51.910;8.374;2022-09-09T11:51:44;22.80;99.90
37002;DHT22;22913;51.910;8.374;2022-09-09T11:54:32;23.10;99.90
37002;DHT22;22913;51.910;8.374;2022-09-09T11:57:24;23.40;99.90
37002;DHT22;22913;51.910;8.374;2022-09-09T12:00:30;23.70;99.90
37002;DHT22;22913;51.910;8.374;2022-09-09T12:03:37;24.00;99.90
37002;DHT22;22913;51.910;8.374;2022-09-09T12:06:29;24.20;99.90
37002;DHT22;22913;51.910;8.374;2022-09-09T12:09:21;24.30;99.90
37002;DHT22;22913;51.910;8.374;2022-09-09T12:12:23;24.50;99.90
37002;DHT22;22913;51.910;8.374;2022-09-09T12:15:25;24.80;99.90
37002;DHT22;22913;51.910;8.374;2022-09-09T12:18:15;25.10;99.90
37002;DHT22;22913;51.910;8.374;2022-09-09T12:24:19;25.10;99.90
37002;DHT22;22913;51.910;8.374;2022-09-09T12:27:11;25.30;99.90
37002;DHT22;22913;51.910;8.374;2022-09-09T12:30:04;25.50;99.90
37002;DHT22;22913;51.910;8.374;2022-09-09T12:33:00;25.60;99.90
37002;DHT22;22913;51.910;8.374;2022-09-09T12:35:49;25.70;99.90
37002;DHT22;22913;51.910;8.374;2022-09-09T12:38:39;25.70;99.90
37002;DHT22;22913;51.910;8.374;2022-09-09T12:41:27;25.40;99.90
37002;DHT22;22913;51.910;8.374;2022-09-09T12:44:13;25.30;99.90
37002;DHT22;22913;51.910;8.374;2022-09-09T12:47:01;25.50;99.90
37002;DHT22;22913;51.910;8.374;2022-09-09T12:49:47;25.40;99.90
37002;DHT22;22913;51.910;8.374;2022-09-09T12:52:35;24.70;99.90
37002;DHT22;22913;51.910;8.374;2022-09-09T12:55:25;24.50;99.90
37002;DHT22;22913;51.910;8.374;2022-09-09T12:58:16;24.20;99.90
37002;DHT22;22913;51.910;8.374;2022-09-09T13:01:04;24.10;99.90
37002;DHT22;22913;51.910;8.374;2022-09-09T13:03:51;23.90;99.90
37002;DHT22;22913;51.910;8.374;2022-09-09T13:06:36;23.60;99.90
37002;DHT22;22913;51.910;8.374;2022-09-09T13:09:22;23.30;99.90
37002;DHT22;22913;51.910;8.374;2022-09-09T13:12:14;23.10;99.90
37002;DHT22;22913;51.910;8.374;2022-09-09T13:15:01;23.10;99.90
37002;DHT22;22913;51.910;8.374;2022-09-09T13:17:54;23.40;99.90
37002;DHT22;22913;51.910;8.374;2022-09-09T13:20:46;23.60;99.90
37002;DHT22;22913;51.910;8.374;2022-09-09T13:23:33;23.70;99.90
37002;DHT22;22913;51.910;8.374;2022-09-09T13:26:22;23.90;99.90
37002;DHT22;22913;51.910;8.374;2022-09-09T13:29:16;24.20;99.90
37002;DHT22;22913;51.910;8.374;2022-09-09T13:32:16;24.60;99.90
37002;DHT22;22913;51.910;8.374;2022-09-09T13:35:03;25.00;99.90
37002;DHT22;22913;51.910;8.374;2022-09-09T13:37:50;25.50;99.90
37002;DHT22;22913;51.910;8.374;2022-09-09T13:40:37;25.70;99.90
37002;DHT22;22913;51.910;8.374;2022-09-09T13:43:24;26.10;99.90
37002;DHT22;22913;51.910;8.374;2022-09-09T13:46:32;26.10;99.90
37002;DHT22;22913;51.910;8.374;2022-09-09T13:49:21;26.50;99.90
37002;DHT22;22913;51.910;8.374;2022-09-09T13:52:12;26.50;99.90
37002;DHT22;22913;51.910;8.374;2022-09-09T13:54:58;26.70;99.90
37002;DHT22;22913;51.910;8.374;2022-09-09T13:57:51;26.70;99.90
37002;DHT22;22913;51.910;8.374;2022-09-09T14:00:37;27.10;99.90
37002;DHT22;22913;51.910;8.374;2022-09-09T14:03:23;27.60;99.90
37002;DHT22;22913;51.910;8.374;2022-09-09T14:06:11;27.20;99.90
37002;DHT22;22913;51.910;8.374;2022-09-09T14:08:58;26.50;99.90
37002;DHT22;22913;51.910;8.374;2022-09-09T14:11:44;26.10;99.90
37002;DHT22;22913;51.910;8.374;2022-09-09T14:14:30;25.80;99.90
37002;DHT22;22913;51.910;8.374;2022-09-09T14:17:16;25.50;99.90
37002;DHT22;22913;51.910;8.374;2022-09-09T14:20:02;25.10;99.90
37002;DHT22;22913;51.910;8.374;2022-09-09T14:22:49;24.70;99.90
37002;DHT22;22913;51.910;8.374;2022-09-09T14:25:34;24.30;99.90
37002;DHT22;22913;51.910;8.374;2022-09-09T14:28:20;23.80;99.90
37002;DHT22;22913;51.910;8.374;2022-09-09T14:31:06;23.60;99.90
37002;DHT22;22913;51.910;8.374;2022-09-09T14:33:52;23.50;99.90
37002;DHT22;22913;51.910;8.374;2022-09-09T14:36:37;23.60;99.90
37002;DHT22;22913;51.910;8.374;2022-09-09T14:39:25;23.50;99.90
37002;DHT22;22913;51.910;8.374;2022-09-09T14:42:10;23.30;99.90
37002;DHT22;22913;51.910;8.374;2022-09-09T14:44:56;23.20;99.90
37002;DHT22;22913;51.910;8.374;2022-09-09T14:47:42;23.00;99.90
37002;DHT22;22913;51.910;8.374;2022-09-09T14:50:27;22.80;99.90
37002;DHT22;22913;51.910;8.374;2022-09-09T14:53:13;22.70;99.90
37002;DHT22;22913;51.910;8.374;2022-09-09T14:56:11;22.80;99.90
37002;DHT22;22913;51.910;8.374;2022-09-09T14:58:58;22.90;99.90
37002;DHT22;22913;51.910;8.374;2022-09-09T15:01:45;22.90;99.90
37002;DHT22;22913;51.910;8.374;2022-09-09T15:04:31;22.90;99.90
37002;DHT22;22913;51.910;8.374;2022-09-09T15:07:17;22.90;99.90
37002;DHT22;22913;51.910;8.374;2022-09-09T15:10:03;22.90;99.90
37002;DHT22;22913;51.910;8.374;2022-09-09T15:12:51;22.90;99.90
37002;DHT22;22913;51.910;8.374;2022-09-09T15:15:37;22.80;99.90
37002;DHT22;22913;51.910;8.374;2022-09-09T15:18:22;22.70;99.90
37002;DHT22;22913;51.910;8.374;2022-09-09T15:21:09;22.70;99.90
37002;DHT22;22913;51.910;8.374;2022-09-09T15:23:55;22.60;99.90
37002;DHT22;22913;51.910;8.374;2022-09-09T15:26:40;22.60;99.90
37002;DHT22;22913;51.910;8.374;2022-09-09T15:29:28;22.50;99.90
37002;DHT22;22913;51.910;8.374;2022-09-09T15:32:13;22.50;99.90
37002;DHT22;22913;51.910;8.374;2022-09-09T15:34:59;22.40;99.90
37002;DHT22;22913;51.910;8.374;2022-09-09T15:37:45;22.40;99.90
37002;DHT22;22913;51.910;8.374;2022-09-09T15:40:31;22.30;99.90
37002;DHT22;22913;51.910;8.374;2022-09-09T15:43:17;22.30;99.90
37002;DHT22;22913;51.910;8.374;2022-09-09T15:46:22;22.20;99.90
37002;DHT22;22913;51.910;8.374;2022-09-09T15:49:11;22.20;99.90
37002;DHT22;22913;51.910;8.374;2022-09-09T15:51:58;22.20;99.90
37002;DHT22;22913;51.910;8.374;2022-09-09T15:54:47;22.20;99.90
37002;DHT22;22913;51.910;8.374;2022-09-09T15:57:33;22.10;99.90
37002;DHT22;22913;51.910;8.374;2022-09-09T16:00:19;22.10;99.90
37002;DHT22;22913;51.910;8.374;2022-09-09T16:03:06;22.20;99.90
37002;DHT22;22913;51.910;8.374;2022-09-09T16:05:52;22.30;99.90
37002;DHT22;22913;51.910;8.374;2022-09-09T16:08:39;22.60;99.90
37002;DHT22;22913;51.910;8.374;2022-09-09T16:11:26;22.60;99.90
37002;DHT22;22913;51.910;8.374;2022-09-09T16:14:13;22.70;99.90
37002;DHT22;22913;51.910;8.374;2022-09-09T16:16:59;22.60;99.90
37002;DHT22;22913;51.910;8.374;2022-09-09T16:19:47;22.60;99.90
37002;DHT22;22913;51.910;8.374;2022-09-09T16:22:32;22.40;99.90
37002;DHT22;22913;51.910;8.374;2022-09-09T16:25:18;22.40;99.90
37002;DHT22;22913;51.910;8.374;2022-09-09T16:28:03;22.40;99.90
37002;DHT22;22913;51.910;8.374;2022-09-09T16:30:49;22.30;99.90
37002;DHT22;22913;51.910;8.374;2022-09-09T16:33:35;22.30;99.90
37002;DHT22;22913;51.910;8.374;2022-09-09T16:36:23;22.20;99.90
37002;DHT22;22913;51.910;8.374;2022-09-09T16:39:11;21.90;99.90
37002;DHT22;22913;51.910;8.374;2022-09-09T16:41:57;21.70;99.90
37002;DHT22;22913;51.910;8.374;2022-09-09T16:44:44;21.60;99.90
37002;DHT22;22913;51.910;8.374;2022-09-09T16:47:30;21.50;99.90
37002;DHT22;22913;51.910;8.374;2022-09-09T16:50:15;21.20;99.90
37002;DHT22;22913;51.910;8.374;2022-09-09T16:53:03;20.90;99.90
37002;DHT22;22913;51.910;8.374;2022-09-09T16:55:50;20.70;99.90
37002;DHT22;22913;51.910;8.374;2022-09-09T16:58:36;20.30;99.90
37002;DHT22;22913;51.910;8.374;2022-09-09T17:01:23;20.20;99.90
37002;DHT22;22913;51.910;8.374;2022-09-09T17:04:10;20.00;99.90
37002;DHT22;22913;51.910;8.374;2022-09-09T17:06:57;19.90;99.90
37002;DHT22;22913;51.910;8.374;2022-09-09T17:09:45;19.70;99.90
37002;DHT22;22913;51.910;8.374;2022-09-09T17:12:31;19.70;99.90
37002;DHT22;22913;51.910;8.374;2022-09-09T17:15:20;19.60;99.90
37002;DHT22;22913;51.910;8.374;2022-09-09T17:18:07;19.50;99.90
37002;DHT22;22913;51.910;8.374;2022-09-09T17:20:53;19.40;99.90
37002;DHT22;22913;51.910;8.374;2022-09-09T17:23:39;19.30;99.90
37002;DHT22;22913;51.910;8.374;2022-09-09T17:26:30;19.20;99.90
37002;DHT22;22913;51.910;8.374;2022-09-09T17:29:17;18.90;99.90
37002;DHT22;22913;51.910;8.374;2022-09-09T17:32:03;18.80;99.90
37002;DHT22;22913;51.910;8.374;2022-09-09T17:34:49;18.60;99.90
37002;DHT22;22913;51.910;8.374;2022-09-09T17:37:35;18.60;99.90
37002;DHT22;22913;51.910;8.374;2022-09-09T17:40:21;18.60;99.90
37002;DHT22;22913;51.910;8.374;2022-09-09T17:43:09;18.70;99.90
37002;DHT22;22913;51.910;8.374;2022-09-09T17:45:54;18.70;99.90
37002;DHT22;22913;51.910;8.374;2022-09-09T17:48:41;18.60;99.90
37002;DHT22;22913;51.910;8.374;2022-09-09T17:51:31;18.50;99.90
37002;DHT22;22913;51.910;8.374;2022-09-09T17:54:18;18.40;99.90
37002;DHT22;22913;51.910;8.374;2022-09-09T17:57:04;18.30;99.90